createdAt,value
2018-05-11T00:00:01.378Z,48.70
2018-05-11T00:02:28.723Z,48.70
2018-05-11T00:04:56.076Z,48.70
2018-05-11T00:07:23.401Z,48.80
2018-05-11T00:09:50.729Z,48.80
2018-05-11T00:12:18.075Z,48.80
2018-05-11T00:14:46.234Z,48.60
2018-05-11T00:17:14.337Z,48.70
2018-05-11T00:19:41.718Z,48.70
2018-05-11T00:22:09.051Z,48.80
2018-05-11T00:24:36.404Z,48.90
2018-05-11T00:27:03.726Z,48.90
2018-05-11T00:29:31.847Z,49.00
2018-05-11T00:31:59.185Z,49.00
2018-05-11T00:34:26.548Z,48.90
2018-05-11T00:36:53.888Z,49.00
2018-05-11T00:39:21.232Z,49.00
2018-05-11T00:41:48.652Z,48.90
2018-05-11T00:44:15.975Z,48.80
2018-05-11T00:46:43.337Z,48.70
2018-05-11T00:49:10.701Z,48.70
2018-05-11T00:51:38.070Z,48.60
2018-05-11T00:54:06.129Z,48.60
2018-05-11T00:56:33.512Z,48.50
2018-05-11T00:59:00.833Z,48.50
2018-05-11T01:01:28.180Z,48.40
2018-05-11T01:03:55.506Z,48.50
2018-05-11T01:06:22.876Z,48.60
2018-05-11T01:08:50.201Z,48.60
2018-05-11T01:11:18.286Z,48.60
2018-05-11T01:13:45.602Z,48.60
2018-05-11T01:16:13.645Z,48.50
2018-05-11T01:18:40.977Z,48.50
2018-05-11T01:21:08.288Z,48.50
2018-05-11T01:23:35.613Z,48.50
2018-05-11T01:26:03.714Z,48.70
2018-05-11T01:28:31.051Z,48.70
2018-05-11T01:30:58.341Z,48.80
2018-05-11T01:35:59.208Z,48.90
2018-05-11T01:38:26.538Z,49.00
2018-05-11T01:40:53.865Z,49.10
2018-05-11T01:43:21.146Z,49.10
2018-05-11T01:45:48.437Z,49.10
2018-05-11T01:48:15.759Z,49.20
2018-05-11T01:50:43.124Z,49.10
2018-05-11T01:53:10.432Z,49.00
2018-05-11T01:55:37.753Z,49.00
2018-05-11T01:58:05.106Z,48.90
2018-05-11T02:00:33.165Z,49.00
2018-05-11T02:03:00.441Z,48.90
2018-05-11T02:05:28.509Z,48.70
2018-05-11T02:07:56.634Z,48.60
2018-05-11T02:10:23.921Z,48.60
2018-05-11T02:12:51.229Z,49.20
2018-05-11T02:15:18.566Z,48.60
2018-05-11T02:17:45.878Z,48.40
2018-05-11T02:20:13.178Z,48.30
2018-05-11T02:22:40.534Z,48.30
2018-05-11T02:25:07.817Z,48.20
2018-05-11T02:27:35.124Z,48.20
2018-05-11T02:30:02.438Z,48.20
2018-05-11T02:32:29.756Z,48.20
2018-05-11T02:34:57.073Z,48.80
2018-05-11T02:37:24.381Z,48.30
2018-05-11T02:39:51.723Z,48.40
2018-05-11T02:42:19.067Z,48.30
2018-05-11T02:44:46.382Z,48.30
2018-05-11T02:47:13.692Z,48.20
2018-05-11T02:49:40.982Z,48.20
2018-05-11T02:52:09.077Z,48.20
2018-05-11T02:54:36.409Z,48.20
2018-05-11T02:57:04.474Z,48.10
2018-05-11T02:59:32.545Z,48.20
2018-05-11T03:01:59.883Z,48.10
2018-05-11T03:04:27.961Z,48.20
2018-05-11T03:06:56.029Z,48.30
2018-05-11T03:09:24.117Z,48.40
2018-05-11T03:11:51.430Z,48.40
2018-05-11T03:14:18.714Z,48.50
2018-05-11T03:16:46.794Z,48.40
2018-05-11T03:19:14.125Z,48.50
2018-05-11T03:21:42.226Z,48.30
2018-05-11T03:24:09.512Z,48.30
2018-05-11T03:26:36.830Z,48.30
2018-05-11T03:29:04.157Z,48.30
2018-05-11T03:31:32.242Z,48.30
2018-05-11T03:33:59.563Z,48.30
2018-05-11T03:36:26.896Z,48.30
2018-05-11T03:38:54.228Z,48.30
2018-05-11T03:41:21.573Z,48.30
2018-05-11T03:43:48.872Z,48.30
2018-05-11T03:46:16.152Z,48.20
2018-05-11T03:48:44.172Z,48.20
2018-05-11T03:51:11.361Z,48.20
2018-05-11T03:53:38.596Z,48.10
2018-05-11T03:56:05.804Z,48.10
2018-05-11T03:58:33.116Z,48.10
2018-05-11T04:01:00.373Z,48.10
2018-05-11T04:03:34.298Z,48.10
2018-05-11T04:06:04.123Z,48.10
2018-05-11T04:08:37.273Z,48.10
2018-05-11T04:11:04.452Z,48.20
2018-05-11T04:13:31.710Z,48.10
2018-05-11T04:15:58.923Z,48.20
2018-05-11T04:18:26.125Z,48.10
2018-05-11T04:20:53.355Z,48.80
2018-05-11T04:23:20.607Z,48.20
2018-05-11T04:25:47.842Z,48.20
2018-05-11T04:28:15.834Z,48.00
2018-05-11T04:30:43.032Z,48.00
2018-05-11T04:33:10.234Z,47.90
2018-05-11T04:35:37.438Z,47.90
2018-05-11T04:38:04.624Z,48.00
2018-05-11T04:40:31.824Z,48.00
2018-05-11T04:42:59.012Z,48.00
2018-05-11T04:45:26.991Z,47.80
2018-05-11T04:47:54.232Z,47.80
2018-05-11T04:50:22.209Z,47.80
2018-05-11T04:52:49.542Z,47.80
2018-05-11T04:55:17.563Z,47.80
2018-05-11T04:57:44.764Z,47.80
2018-05-11T05:00:12.743Z,47.90
2018-05-11T05:02:40.740Z,47.90
2018-05-11T05:05:07.969Z,47.90
2018-05-11T05:07:35.163Z,48.00
2018-05-11T05:10:02.372Z,48.00
2018-05-11T05:12:29.597Z,47.90
2018-05-11T05:14:57.573Z,48.10
2018-05-11T05:17:25.533Z,48.10
2018-05-11T05:19:53.530Z,48.20
2018-05-11T05:22:20.736Z,48.10
2018-05-11T05:24:47.924Z,48.10
2018-05-11T05:27:15.162Z,48.10
2018-05-11T05:29:42.390Z,48.20
2018-05-11T05:32:09.591Z,48.30
2018-05-11T05:34:36.806Z,48.30
2018-05-11T05:37:04.780Z,48.50
2018-05-11T05:39:32.830Z,48.60
2018-05-11T05:42:00.028Z,48.50
2018-05-11T05:44:27.226Z,48.60
2018-05-11T05:46:54.443Z,48.70
2018-05-11T05:49:21.649Z,48.70
2018-05-11T05:51:49.646Z,48.90
2018-05-11T05:54:16.879Z,48.80
2018-05-11T05:56:44.114Z,48.90
2018-05-11T05:59:12.080Z,49.70
2018-05-11T06:01:40.027Z,49.10
2018-05-11T06:04:07.239Z,49.00
2018-05-11T06:06:34.463Z,49.00
2018-05-11T06:09:01.687Z,49.10
2018-05-11T06:11:28.902Z,49.20
2018-05-11T06:13:56.142Z,49.90
2018-05-11T06:16:23.347Z,49.40
2018-05-11T06:18:51.321Z,49.60
2018-05-11T06:21:19.338Z,49.70
2018-05-11T06:23:46.524Z,49.60
2018-05-11T06:26:13.767Z,49.70
2018-05-11T06:28:40.977Z,49.80
2018-05-11T06:31:08.173Z,49.80
2018-05-11T06:33:35.379Z,49.90
2018-05-11T06:36:02.607Z,50.00
2018-05-11T06:38:29.793Z,50.10
2018-05-11T06:40:57.028Z,50.20
2018-05-11T06:43:24.263Z,50.40
2018-05-11T06:45:51.545Z,50.50
2018-05-11T06:48:18.738Z,50.60
2018-05-11T06:50:46.722Z,50.70
2018-05-11T06:53:14.714Z,50.80
2018-05-11T06:55:41.974Z,50.70
2018-05-11T06:58:09.242Z,50.80
2018-05-11T07:00:36.467Z,50.80
2018-05-11T07:03:03.668Z,50.90
2018-05-11T07:05:30.895Z,51.00
2018-05-11T07:07:58.190Z,50.90
2018-05-11T07:10:25.400Z,51.10
2018-05-11T07:12:52.585Z,51.10
2018-05-11T07:15:20.531Z,51.30
2018-05-11T07:17:47.724Z,51.20
2018-05-11T07:20:14.932Z,51.40
2018-05-11T07:22:42.140Z,51.40
2018-05-11T07:25:09.350Z,51.40
2018-05-11T07:27:37.355Z,51.60
2018-05-11T07:30:04.583Z,51.60
2018-05-11T07:32:31.800Z,51.60
2018-05-11T07:34:59.099Z,51.70
2018-05-11T07:37:26.246Z,51.70
2018-05-11T07:39:53.448Z,51.70
2018-05-11T07:42:20.655Z,51.70
2018-05-11T07:44:47.919Z,52.50
2018-05-11T07:47:15.115Z,52.00
2018-05-11T07:49:43.090Z,52.10
2018-05-11T07:52:11.069Z,52.10
2018-05-11T07:54:39.039Z,52.00
2018-05-11T07:57:06.297Z,52.10
2018-05-11T07:59:33.559Z,52.10
2018-05-11T08:02:00.776Z,52.20
2018-05-11T08:04:28.751Z,52.40
2018-05-11T08:06:56.702Z,52.40
2018-05-11T08:09:23.899Z,52.40
2018-05-11T08:11:51.104Z,52.90
2018-05-11T08:14:19.152Z,52.80
2018-05-11T08:16:46.376Z,52.80
2018-05-11T08:19:13.698Z,52.80
2018-05-11T08:21:41.049Z,52.80
2018-05-11T08:24:08.390Z,52.80
2018-05-11T08:26:36.476Z,53.10
2018-05-11T08:29:03.818Z,53.10
2018-05-11T08:31:31.148Z,53.30
2018-05-11T08:33:59.571Z,53.30
2018-05-11T08:36:26.873Z,53.30
2018-05-11T08:38:54.984Z,53.20
2018-05-11T08:41:22.299Z,53.20
2018-05-11T08:43:50.398Z,53.30
2018-05-11T08:46:17.784Z,53.30
2018-05-11T08:48:45.126Z,53.30
2018-05-11T08:51:12.459Z,53.30
2018-05-11T08:53:39.686Z,53.30
2018-05-11T08:56:06.966Z,53.30
2018-05-11T08:58:34.199Z,53.30
2018-05-11T09:01:02.189Z,53.50
2018-05-11T09:03:29.423Z,53.40
2018-05-11T09:05:57.376Z,53.40
2018-05-11T09:08:24.628Z,53.40
2018-05-11T09:10:51.902Z,53.40
2018-05-11T09:13:19.090Z,53.40
2018-05-11T09:15:46.294Z,53.60
2018-05-11T09:18:14.286Z,53.70
2018-05-11T09:20:41.498Z,53.70
2018-05-11T09:23:08.715Z,53.70
2018-05-11T09:25:35.958Z,53.80
2018-05-11T09:28:03.245Z,53.70
2018-05-11T09:30:30.468Z,53.70
2018-05-11T09:32:57.687Z,53.70
2018-05-11T09:35:24.918Z,53.70
2018-05-11T09:37:52.926Z,53.60
2018-05-11T09:40:20.157Z,53.50
2018-05-11T09:42:47.378Z,53.50
2018-05-11T09:45:14.560Z,53.50
2018-05-11T09:47:41.768Z,53.40
2018-05-11T09:50:08.972Z,53.40
2018-05-11T09:52:36.177Z,53.40
2018-05-11T09:55:03.407Z,53.30
2018-05-11T09:57:30.688Z,53.80
2018-05-11T09:59:58.685Z,53.40
2018-05-11T10:02:25.872Z,53.40
2018-05-11T10:04:53.092Z,53.40
2018-05-11T10:07:20.326Z,53.40
2018-05-11T10:09:47.512Z,53.40
2018-05-11T10:12:14.706Z,53.50
2018-05-11T10:14:42.798Z,53.40
2018-05-11T10:17:10.007Z,53.40
2018-05-11T10:19:37.216Z,53.40
2018-05-11T10:22:04.463Z,53.50
2018-05-11T10:24:31.651Z,53.50
2018-05-11T10:26:58.881Z,53.60
2018-05-11T10:29:26.100Z,53.60
2018-05-11T10:31:53.312Z,53.60
2018-05-11T10:34:20.569Z,53.50
2018-05-11T10:36:47.792Z,53.50
2018-05-11T10:39:15.002Z,53.50
2018-05-11T10:41:42.259Z,53.40
2018-05-11T10:44:10.316Z,53.20
2018-05-11T10:46:38.279Z,53.20
2018-05-11T10:49:06.264Z,53.20
2018-05-11T10:51:33.467Z,53.20
2018-05-11T10:54:00.659Z,53.20
2018-05-11T10:56:27.864Z,53.20
2018-05-11T10:58:55.063Z,53.40
2018-05-11T11:01:22.244Z,53.60
2018-05-11T11:03:49.444Z,53.70
2018-05-11T11:06:17.420Z,53.70
2018-05-11T11:08:44.647Z,53.60
2018-05-11T11:11:11.863Z,53.60
2018-05-11T11:13:39.192Z,53.50
2018-05-11T11:16:06.455Z,53.50
2018-05-11T11:18:33.669Z,53.50
2018-05-11T11:21:01.634Z,53.50
2018-05-11T11:23:29.670Z,53.50
2018-05-11T11:25:56.856Z,53.50
2018-05-11T11:28:24.083Z,53.50
2018-05-11T11:30:51.326Z,53.40
2018-05-11T11:33:18.542Z,53.40
2018-05-11T11:35:45.725Z,53.40
2018-05-11T11:38:12.923Z,53.40
2018-05-11T11:40:40.160Z,53.40
2018-05-11T11:43:08.223Z,53.50
2018-05-11T11:45:36.172Z,53.50
2018-05-11T11:48:03.423Z,53.40
2018-05-11T11:50:30.647Z,53.30
2018-05-11T11:52:57.837Z,53.30
2018-05-11T11:55:25.854Z,53.50
2018-05-11T11:57:53.041Z,53.40
2018-05-11T12:00:20.286Z,53.30
2018-05-11T12:02:47.511Z,53.30
2018-05-11T12:05:14.726Z,53.40
2018-05-11T12:07:41.931Z,53.40
2018-05-11T12:10:09.178Z,53.40
2018-05-11T12:12:36.396Z,53.40
2018-05-11T12:15:03.617Z,53.40
2018-05-11T12:17:31.584Z,53.40
2018-05-11T12:19:59.554Z,53.40
2018-05-11T12:22:27.547Z,53.40
2018-05-11T12:24:54.770Z,53.30
2018-05-11T12:27:22.754Z,53.40
2018-05-11T12:29:49.959Z,53.30
2018-05-11T12:32:17.199Z,53.30
2018-05-11T12:34:44.426Z,53.40
2018-05-11T12:37:11.711Z,53.30
2018-05-11T12:39:38.981Z,53.40
2018-05-11T12:42:06.951Z,53.40
2018-05-11T12:44:34.939Z,53.40
2018-05-11T12:47:02.123Z,53.30
2018-05-11T12:49:29.368Z,53.40
2018-05-11T12:51:56.559Z,53.40
2018-05-11T12:54:24.555Z,53.40
2018-05-11T12:56:51.781Z,53.30
2018-05-11T12:59:19.023Z,54.00
2018-05-11T13:01:46.210Z,53.40
2018-05-11T13:04:13.419Z,53.40
2018-05-11T13:06:40.635Z,53.40
2018-05-11T13:09:07.863Z,53.50
2018-05-11T13:11:35.052Z,53.40
2018-05-11T13:14:02.255Z,53.40
2018-05-11T13:16:30.227Z,53.40
2018-05-11T13:18:57.498Z,54.00
2018-05-11T13:21:24.724Z,53.40
2018-05-11T13:23:52.677Z,53.40
2018-05-11T13:26:20.693Z,53.40
2018-05-11T13:28:47.887Z,53.40
2018-05-11T13:31:15.100Z,53.40
2018-05-11T13:33:42.310Z,53.40
2018-05-11T13:36:10.264Z,53.40
2018-05-11T13:38:38.244Z,53.30
2018-05-11T13:41:06.225Z,53.30
2018-05-11T13:43:33.484Z,53.30
2018-05-11T13:46:00.711Z,53.30
2018-05-11T13:48:28.755Z,53.30
2018-05-11T13:50:55.890Z,53.30
2018-05-11T13:53:23.200Z,53.30
2018-05-11T13:55:50.486Z,53.30
2018-05-11T13:58:17.672Z,53.40
2018-05-11T14:00:45.693Z,53.50
2018-05-11T14:03:12.946Z,53.40
2018-05-11T14:05:40.177Z,53.30
2018-05-11T14:08:07.381Z,53.30
2018-05-11T14:10:34.586Z,53.30
2018-05-11T14:13:01.830Z,53.30
2018-05-11T14:15:29.084Z,53.40
2018-05-11T14:17:56.309Z,53.40
2018-05-11T14:20:24.307Z,53.40
2018-05-11T14:22:51.580Z,53.40
2018-05-11T14:25:18.796Z,53.40
2018-05-11T14:27:46.018Z,53.40
2018-05-11T14:30:13.977Z,53.50
2018-05-11T14:32:41.388Z,53.40
2018-05-11T14:35:08.568Z,53.40
2018-05-11T14:37:35.767Z,53.40
2018-05-11T14:40:03.003Z,53.40
2018-05-11T14:42:30.986Z,53.40
2018-05-11T14:44:58.213Z,53.40
2018-05-11T14:47:26.187Z,53.50
2018-05-11T14:49:53.429Z,53.40
2018-05-11T14:52:21.400Z,53.40
2018-05-11T14:54:49.394Z,53.40
2018-05-11T14:57:16.600Z,53.40
2018-05-11T14:59:43.847Z,53.40
2018-05-11T15:02:11.079Z,53.30
2018-05-11T15:04:38.349Z,53.10
2018-05-11T15:07:05.580Z,53.00
2018-05-11T15:09:32.821Z,53.00
2018-05-11T15:12:00.004Z,53.10
2018-05-11T15:14:27.222Z,53.50
2018-05-11T15:16:54.566Z,53.70
2018-05-11T15:19:21.931Z,54.20
2018-05-11T15:21:49.145Z,54.30
2018-05-11T15:24:16.435Z,54.10
2018-05-11T15:26:43.668Z,54.10
2018-05-11T15:29:10.893Z,54.30
2018-05-11T15:31:38.887Z,54.30
2018-05-11T15:34:06.069Z,54.30
2018-05-11T15:36:33.271Z,54.30
2018-05-11T15:39:00.526Z,54.30
2018-05-11T15:41:27.750Z,54.40
2018-05-11T15:43:55.734Z,54.10
2018-05-11T15:46:23.732Z,54.10
2018-05-11T15:48:50.940Z,54.00
2018-05-11T15:51:18.919Z,53.80
2018-05-11T15:53:46.127Z,53.80
2018-05-11T15:56:13.354Z,53.80
2018-05-11T15:58:40.644Z,53.70
2018-05-11T16:01:07.872Z,53.70
2018-05-11T16:03:35.089Z,53.70
2018-05-11T16:06:02.287Z,53.70
2018-05-11T16:08:29.512Z,53.70
2018-05-11T16:10:56.748Z,53.70
2018-05-11T16:13:23.959Z,53.70
2018-05-11T16:15:51.940Z,53.40
2018-05-11T16:18:19.990Z,53.00
2018-05-11T16:20:48.001Z,52.70
2018-05-11T16:23:15.248Z,52.60
2018-05-11T16:25:42.436Z,52.70
2018-05-11T16:28:09.650Z,52.80
2018-05-11T16:30:36.871Z,52.90
2018-05-11T16:33:04.858Z,53.20
2018-05-11T16:35:32.087Z,53.10
2018-05-11T16:38:00.068Z,53.20
2018-05-11T16:40:27.333Z,53.20
2018-05-11T16:42:54.543Z,53.20
2018-05-11T16:45:21.764Z,53.20
2018-05-11T16:47:48.960Z,53.80
2018-05-11T16:50:16.974Z,53.20
2018-05-11T16:52:44.191Z,53.10
2018-05-11T16:55:12.151Z,53.10
2018-05-11T16:57:40.105Z,53.20
2018-05-11T17:00:08.106Z,53.20
2018-05-11T17:02:35.331Z,53.20
2018-05-11T17:05:03.364Z,53.30
2018-05-11T17:07:30.572Z,53.30
2018-05-11T17:09:57.792Z,53.30
2018-05-11T17:12:25.027Z,53.30
2018-05-11T17:14:52.211Z,53.30
2018-05-11T17:17:20.226Z,53.40
2018-05-11T17:19:47.409Z,53.30
2018-05-11T17:22:14.631Z,53.30
2018-05-11T17:24:41.869Z,52.90
2018-05-11T17:27:09.066Z,53.40
2018-05-11T17:29:37.072Z,53.50
2018-05-11T17:32:04.315Z,53.40
2018-05-11T17:34:31.590Z,53.50
2018-05-11T17:36:58.820Z,53.50
2018-05-11T17:39:26.042Z,53.50
2018-05-11T17:41:54.007Z,53.50
2018-05-11T17:44:22.019Z,53.50
2018-05-11T17:46:49.236Z,53.40
2018-05-11T17:49:17.290Z,53.40
2018-05-11T17:51:45.284Z,53.40
2018-05-11T17:54:12.535Z,53.40
2018-05-11T17:56:39.769Z,53.40
2018-05-11T17:59:07.788Z,53.40
2018-05-11T18:01:35.777Z,53.60
2018-05-11T18:04:03.019Z,53.40
2018-05-11T18:06:30.277Z,53.40
2018-05-11T18:08:57.553Z,53.40
2018-05-11T18:11:25.648Z,53.50
2018-05-11T18:13:53.009Z,53.50
2018-05-11T18:16:20.214Z,53.50
2018-05-11T18:18:47.483Z,53.50
2018-05-11T18:21:15.601Z,53.70
2018-05-11T18:23:42.869Z,53.70
2018-05-11T18:26:10.143Z,53.90
2018-05-11T18:28:37.343Z,54.50
2018-05-11T18:31:04.577Z,54.80
2018-05-11T18:33:31.796Z,54.90
2018-05-11T18:35:59.014Z,54.90
2018-05-11T18:38:27.121Z,55.60
2018-05-11T18:40:55.210Z,55.60
2018-05-11T18:43:22.556Z,55.60
2018-05-11T18:45:49.786Z,55.50
2018-05-11T18:48:17.077Z,55.70
2018-05-11T18:50:44.305Z,55.60
2018-05-11T18:53:12.496Z,55.40
2018-05-11T18:55:39.693Z,55.40
2018-05-11T18:58:07.000Z,55.30
2018-05-11T19:00:34.217Z,55.40
2018-05-11T19:03:01.452Z,55.30
2018-05-11T19:05:28.766Z,55.40
2018-05-11T19:07:56.121Z,55.20
2018-05-11T19:10:23.453Z,55.10
2018-05-11T19:12:50.686Z,55.00
2018-05-11T19:15:18.678Z,54.70
2018-05-11T19:17:46.741Z,54.60
2018-05-11T19:20:14.068Z,54.50
2018-05-11T19:22:42.212Z,54.20
2018-05-11T19:25:09.456Z,54.10
2018-05-11T19:27:36.789Z,54.10
2018-05-11T19:30:04.112Z,54.20
2018-05-11T19:32:32.100Z,54.20
2018-05-11T19:34:59.433Z,54.20
2018-05-11T19:37:27.538Z,54.10
2018-05-11T19:39:54.873Z,54.10
2018-05-11T19:42:22.233Z,54.00
2018-05-11T19:44:49.547Z,53.70
2018-05-11T19:47:17.545Z,54.20
2018-05-11T19:49:45.619Z,53.60
2018-05-11T19:52:12.968Z,53.60
2018-05-11T19:54:40.192Z,53.60
2018-05-11T19:57:07.408Z,53.60
2018-05-11T19:59:34.644Z,53.80
2018-05-11T20:02:01.862Z,54.50
2018-05-11T20:04:29.825Z,54.20
2018-05-11T20:06:57.834Z,54.60
2018-05-11T20:09:25.039Z,54.60
2018-05-11T20:11:53.037Z,55.60
2018-05-11T20:14:20.264Z,55.50
2018-05-11T20:16:48.267Z,56.50
2018-05-11T20:19:15.475Z,56.40
2018-05-11T20:21:43.463Z,56.50
2018-05-11T20:24:11.461Z,57.20
2018-05-11T20:26:38.644Z,57.20
2018-05-11T20:29:05.857Z,57.90
2018-05-11T20:31:33.121Z,58.30
2018-05-11T20:34:00.342Z,58.50
2018-05-11T20:36:28.158Z,58.50
2018-05-11T20:38:55.477Z,58.70
2018-05-11T20:41:22.761Z,58.60
2018-05-11T20:43:50.061Z,58.60
2018-05-11T20:46:17.377Z,58.70
2018-05-11T20:48:45.520Z,59.20
2018-05-11T20:51:12.802Z,59.20
2018-05-11T20:53:40.126Z,59.10
2018-05-11T20:56:07.475Z,59.20
2018-05-11T20:58:34.806Z,59.30
2018-05-11T21:01:02.145Z,59.30
2018-05-11T21:03:29.504Z,59.30
2018-05-11T21:05:56.847Z,59.60
2018-05-11T21:08:24.173Z,59.50
2018-05-11T21:10:51.620Z,59.70
2018-05-11T21:13:18.913Z,59.60
2018-05-11T21:15:46.235Z,59.50
2018-05-11T21:18:14.308Z,59.70
2018-05-11T21:20:42.381Z,59.10
2018-05-11T21:23:10.660Z,59.00
2018-05-11T21:25:38.731Z,58.90
2018-05-11T21:28:06.777Z,58.90
2018-05-11T21:30:34.129Z,58.80
2018-05-11T21:33:01.466Z,58.80
2018-05-11T21:35:28.777Z,59.00
2018-05-11T21:37:56.133Z,59.20
2018-05-11T21:40:23.497Z,59.10
2018-05-11T21:42:50.816Z,59.30
2018-05-11T21:45:18.891Z,59.30
2018-05-11T21:47:46.956Z,59.50
2018-05-11T21:50:15.056Z,59.70
2018-05-11T21:52:42.376Z,59.70
2018-05-11T21:55:10.451Z,59.90
2018-05-11T21:57:38.524Z,59.90
2018-05-11T22:00:06.692Z,60.10
2018-05-11T22:02:34.831Z,60.40
2018-05-11T22:05:02.142Z,60.50
2018-05-11T22:07:29.454Z,60.40
2018-05-11T22:09:56.785Z,60.30
2018-05-11T22:12:24.991Z,60.90
2018-05-11T22:14:53.104Z,60.80
2018-05-11T22:17:20.448Z,60.90
2018-05-11T22:19:47.765Z,61.00
2018-05-11T22:22:15.033Z,61.20
2018-05-11T22:24:43.164Z,61.10
2018-05-11T22:27:10.496Z,61.00
2018-05-11T22:29:37.817Z,61.10
2018-05-11T22:32:05.160Z,61.20
2018-05-11T22:34:33.248Z,61.50
2018-05-11T22:37:00.545Z,61.50
2018-05-11T22:39:27.892Z,61.60
2018-05-11T22:41:55.319Z,61.70
2018-05-11T22:44:23.319Z,61.70
2018-05-11T22:46:50.531Z,61.70
2018-05-11T22:49:18.539Z,61.80
2018-05-11T22:51:45.733Z,61.80
2018-05-11T22:54:13.739Z,62.40
2018-05-11T22:56:41.030Z,62.20
2018-05-11T22:59:08.258Z,62.10
2018-05-11T23:01:35.452Z,62.70
2018-05-11T23:04:03.436Z,62.80
2018-05-11T23:06:31.470Z,63.30
2018-05-11T23:08:58.708Z,63.30
2018-05-11T23:11:25.964Z,63.40
2018-05-11T23:13:53.172Z,63.40
2018-05-11T23:16:20.411Z,63.30
2018-05-11T23:18:48.368Z,63.60
2018-05-11T23:21:16.355Z,63.60
2018-05-11T23:23:43.632Z,63.60
2018-05-11T23:26:10.828Z,63.60
2018-05-11T23:28:38.796Z,63.20
2018-05-11T23:31:06.791Z,63.20
2018-05-11T23:33:34.020Z,63.20
2018-05-11T23:36:02.063Z,63.10
2018-05-11T23:38:29.317Z,63.10
2018-05-11T23:40:56.546Z,63.30
2018-05-11T23:43:23.751Z,63.10
2018-05-11T23:45:51.751Z,62.90
2018-05-11T23:48:18.974Z,62.80
2018-05-11T23:50:46.162Z,63.40
2018-05-11T23:53:13.373Z,63.60
2018-05-11T23:55:41.377Z,64.30
2018-05-11T23:58:08.582Z,64.10
